Back to Top

Language: 

My Weather Underground Personal Weather Station Historical Data with Graphs...

Delerius Weather Station Historical Data
Daily Summary for June 1, 2017 Units:  Metric    English   Both
« Previous Day
Next Day »
Daily Weekly Monthly Yearly Custom
  High: Low: Average:
Temperature: 23.2 °C 12.6 °C 18.7 °C
Dew Point: 15.1 °C 11.3 °C 12.8 °C
Humidity: 94 % 50 % 70 %
Wind Speed: 20.9 km/h 0 km/h 8 km/h
Wind Gust: 38.6 km/h - -
Wind:- - SW
Pressure: 1020.2 hPa 1015.5 hPa -
Precipitation: 0 mm    
Historical Graphs
 
 
Tabular Data for June 1, 2017
Time Temperature Dew Point Pressure Wind Wind Speed Wind Gust Humidity Rainfall Rate (Hourly) solar Conditions
00:03 17.7 °C 13.8 °C 1020.2 hPa Calm     78 % 0 mm 0 W/m2
00:08 17.6 °C 13.7 °C 1020.2 hPa Calm     78 % 0 mm 0 W/m2
00:13 17.5 °C 13.8 °C 1020.2 hPa Calm     79 % 0 mm 0 W/m2
00:18 17.4 °C 13.7 °C 1020.2 hPa Calm     79 % 0 mm 0 W/m2
00:23 17.3 °C 13.8 °C 1020.2 hPa Calm   3.2 km/h 80 % 0 mm 0 W/m2
00:28 17.2 °C 13.7 °C 1020.2 hPa SSE 1.6 km/h 6.4 km/h 80 % 0 mm 0 W/m2
00:33 17.1 °C 13.6 °C 1019.9 hPa ESE 3.2 km/h 9.7 km/h 80 % 0 mm 0 W/m2
00:38 17.1 °C 13.6 °C 1019.9 hPa ESE 3.2 km/h 9.7 km/h 80 % 0 mm 0 W/m2
00:43 17 °C 13.7 °C 1019.9 hPa SE 1.6 km/h 6.4 km/h 81 % 0 mm 0 W/m2
00:48 16.9 °C 13.6 °C 1019.9 hPa SE 4.8 km/h 12.9 km/h 81 % 0 mm 0 W/m2
00:53 16.9 °C 13.6 °C 1019.9 hPa SE 4.8 km/h 12.9 km/h 81 % 0 mm 0 W/m2
00:58 16.8 °C 13.5 °C 1019.9 hPa SE 3.2 km/h 12.9 km/h 81 % 0 mm 0 W/m2
01:03 16.7 °C 13.6 °C 1019.9 hPa SE 1.6 km/h 8 km/h 82 % 0 mm 0 W/m2
01:04 16.7 °C 13.6 °C 1019.9 hPa SE 1.6 km/h 8 km/h 82 % 0 mm 0 W/m2
01:09 16.6 °C 13.5 °C 1019.9 hPa Calm   3.2 km/h 82 % 0 mm 0 W/m2
01:14 16.4 °C 13.3 °C 1019.9 hPa Calm   3.2 km/h 82 % 0 mm 0 W/m2
01:19 16.3 °C 13.4 °C 1019.9 hPa Calm   3.2 km/h 83 % 0 mm 0 W/m2
01:24 16.2 °C 13.3 °C 1019.9 hPa Calm   3.2 km/h 83 % 0 mm 0 W/m2
01:34 15.9 °C 13.2 °C 1020.2 hPa Calm     84 % 0 mm 0 W/m2
01:39 15.8 °C 13.1 °C 1020.2 hPa Calm     84 % 0 mm 0 W/m2
01:44 15.6 °C 12.9 °C 1020.2 hPa Calm     84 % 0 mm 0 W/m2
01:49 15.5 °C 12.8 °C 1020.2 hPa Calm     84 % 0 mm 0 W/m2
01:54 15.3 °C 12.8 °C 1020.2 hPa Calm     85 % 0 mm 0 W/m2
01:59 15.2 °C 12.7 °C 1020.2 hPa Calm     85 % 0 mm 0 W/m2
02:04 15.1 °C 12.8 °C 1019.9 hPa Calm     86 % 0 mm 0 W/m2
02:09 14.9 °C 12.6 °C 1019.9 hPa Calm     86 % 0 mm 0 W/m2
02:14 14.8 °C 12.5 °C 1019.9 hPa Calm     86 % 0 mm 0 W/m2
02:19 14.6 °C 12.4 °C 1019.9 hPa Calm     87 % 0 mm 0 W/m2
02:24 14.4 °C 12.3 °C 1019.9 hPa Calm     87 % 0 mm 0 W/m2
02:29 14.3 °C 12.3 °C 1019.9 hPa Calm     88 % 0 mm 0 W/m2
02:34 14.2 °C 12.2 °C 1019.9 hPa Calm     88 % 0 mm 0 W/m2
02:39 14.2 °C 12.4 °C 1019.9 hPa Calm     89 % 0 mm 0 W/m2
02:44 14.1 °C 12.3 °C 1019.9 hPa Calm     89 % 0 mm 0 W/m2
02:49 14 °C 12.2 °C 1019.9 hPa Calm     89 % 0 mm 0 W/m2
02:54 13.9 °C 12.3 °C 1019.5 hPa Calm     90 % 0 mm 0 W/m2
02:59 13.9 °C 12.3 °C 1019.9 hPa Calm   3.2 km/h 90 % 0 mm 0 W/m2
03:04 13.8 °C 12.2 °C 1019.5 hPa Calm   3.2 km/h 90 % 0 mm 0 W/m2
03:09 13.8 °C 12.3 °C 1019.5 hPa Calm   3.2 km/h 91 % 0 mm 0 W/m2
03:14 13.7 °C 12.3 °C 1019.5 hPa Calm     91 % 0 mm 0 W/m2
03:19 13.7 °C 12.3 °C 1019.5 hPa Calm     91 % 0 mm 0 W/m2
03:24 13.6 °C 12.2 °C 1019.5 hPa Calm     91 % 0 mm 0 W/m2
03:29 13.5 °C 11.9 °C 1019.5 hPa Calm     90 % 0 mm 0 W/m2
03:34 13.3 °C 11.9 °C 1019.5 hPa WSW 1.6 km/h 11.3 km/h 91 % 0 mm 0 W/m2
03:39 13.3 °C 11.9 °C 1019.5 hPa WSW 1.6 km/h 11.3 km/h 91 % 0 mm 0 W/m2
03:44 13.1 °C 11.7 °C 1019.5 hPa Calm     91 % 0 mm 0 W/m2
03:49 13.1 °C 11.7 °C 1019.5 hPa Calm     91 % 0 mm 0 W/m2
03:54 13 °C 11.7 °C 1019.5 hPa Calm     92 % 0 mm 0 W/m2
03:59 12.9 °C 11.4 °C 1019.5 hPa Calm     91 % 0 mm 0 W/m2
04:04 12.9 °C 11.4 °C 1019.5 hPa Calm     91 % 0 mm 0 W/m2
04:09 12.8 °C 11.6 °C 1019.9 hPa Calm     92 % 0 mm 0 W/m2
04:15 12.8 °C 11.6 °C 1019.9 hPa Calm   3.2 km/h 92 % 0 mm 0 W/m2
04:20 12.7 °C 11.4 °C 1019.9 hPa Calm   3.2 km/h 92 % 0 mm 0 W/m2
04:25 12.8 °C 11.6 °C 1019.9 hPa Calm   3.2 km/h 92 % 0 mm 0 W/m2
04:30 12.8 °C 11.6 °C 1019.9 hPa Calm     92 % 0 mm 0 W/m2
04:35 12.8 °C 11.6 °C 1019.9 hPa Calm     92 % 0 mm 0 W/m2
04:40 12.7 °C 11.4 °C 1019.9 hPa Calm     92 % 0 mm 0 W/m2
04:45 12.7 °C 11.4 °C 1019.9 hPa Calm     92 % 0 mm 0 W/m2
04:50 12.7 °C 11.4 °C 1019.9 hPa Calm     92 % 0 mm 0 W/m2
04:55 12.6 °C 11.5 °C 1019.9 hPa Calm     93 % 0 mm 5 W/m2
05:00 12.6 °C 11.3 °C 1019.9 hPa Calm     92 % 0 mm 7 W/m2
05:05 12.6 °C 11.5 °C 1019.9 hPa Calm     93 % 0 mm 12 W/m2
05:10 12.7 °C 11.6 °C 1019.5 hPa Calm     93 % 0 mm 18 W/m2
05:15 12.7 °C 11.6 °C 1019.9 hPa Calm     93 % 0 mm 23 W/m2
05:20 12.7 °C 11.4 °C 1019.5 hPa Calm     92 % 0 mm 28 W/m2
05:25 12.7 °C 11.4 °C 1019.9 hPa Calm     92 % 0 mm 35 W/m2
05:30 12.7 °C 11.4 °C 1019.9 hPa Calm     92 % 0 mm 39 W/m2
05:35 12.8 °C 11.7 °C 1019.9 hPa Calm     93 % 0 mm 39 W/m2
05:40 12.8 °C 11.6 °C 1019.9 hPa Calm     92 % 0 mm 42 W/m2
05:45 12.7 °C 11.4 °C 1019.9 hPa Calm     92 % 0 mm 40 W/m2
05:50 12.7 °C 11.4 °C 1019.9 hPa Calm     92 % 0 mm 46 W/m2
05:55 12.7 °C 11.4 °C 1019.9 hPa Calm     92 % 0 mm 62 W/m2
06:00 12.8 °C 11.7 °C 1019.9 hPa Calm     93 % 0 mm 97 W/m2
06:05 12.9 °C 11.8 °C 1019.9 hPa Calm     93 % 0 mm 88 W/m2
06:10 13.2 °C 12.3 °C 1019.9 hPa Calm     94 % 0 mm 70 W/m2
06:15 13.4 °C 12.3 °C 1019.9 hPa Calm     93 % 0 mm 70 W/m2
06:20 13.7 °C 12.8 °C 1019.9 hPa Calm     94 % 0 mm 63 W/m2
06:25 13.8 °C 12.7 °C 1019.9 hPa Calm     93 % 0 mm 62 W/m2
06:31 14 °C 12.9 °C 1019.9 hPa Calm     93 % 0 mm 58 W/m2
06:36 14.1 °C 12.8 °C 1019.9 hPa Calm     92 % 0 mm 58 W/m2
06:41 14.2 °C 12.9 °C 1019.9 hPa Calm     92 % 0 mm 67 W/m2
06:46 14.2 °C 12.9 °C 1019.9 hPa Calm     92 % 0 mm 62 W/m2
06:51 14.3 °C 12.8 °C 1019.9 hPa Calm   3.2 km/h 91 % 0 mm 62 W/m2
06:56 14.4 °C 12.9 °C 1019.9 hPa South 1.6 km/h 8 km/h 91 % 0 mm 62 W/m2
07:01 14.5 °C 13.1 °C 1019.5 hPa SSE 1.6 km/h 8 km/h 91 % 0 mm 69 W/m2
07:02 14.5 °C 13.1 °C 1019.5 hPa SE 1.6 km/h 8 km/h 91 % 0 mm 72 W/m2
07:07 14.7 °C 13.2 °C 1019.5 hPa ESE 3.2 km/h 8 km/h 91 % 0 mm 81 W/m2
07:12 14.9 °C 13.4 °C 1019.5 hPa East 3.2 km/h 11.3 km/h 91 % 0 mm 114 W/m2
07:17 15.1 °C 13.7 °C 1019.5 hPa East 4.8 km/h 11.3 km/h 91 % 0 mm 278 W/m2
07:22 15.5 °C 13.9 °C 1019.9 hPa ESE 3.2 km/h 9.7 km/h 90 % 0 mm 287 W/m2
07:27 15.9 °C 14.3 °C 1019.9 hPa ESE 1.6 km/h 6.4 km/h 90 % 0 mm 281 W/m2
07:32 16.4 °C 14.4 °C 1019.9 hPa Calm   3.2 km/h 88 % 0 mm 318 W/m2
07:37 16.8 °C 14.6 °C 1019.9 hPa Calm   3.2 km/h 87 % 0 mm 248 W/m2
07:42 17.3 °C 14.8 °C 1019.5 hPa Calm   4.8 km/h 85 % 0 mm 160 W/m2
07:43 17.3 °C 14.8 °C 1019.5 hPa Calm   4.8 km/h 85 % 0 mm 141 W/m2
07:48 17.5 °C 14.6 °C 1019.5 hPa Calm   3.2 km/h 83 % 0 mm 251 W/m2
07:53 17.6 °C 14.7 °C 1019.5 hPa ESE 1.6 km/h 8 km/h 83 % 0 mm 309 W/m2
07:58 17.7 °C 14.6 °C 1019.5 hPa ESE 1.6 km/h 8 km/h 82 % 0 mm 306 W/m2
08:03 17.9 °C 14.6 °C 1019.5 hPa SSE 1.6 km/h 8 km/h 81 % 0 mm 390 W/m2
08:09 18.2 °C 14.9 °C 1019.5 hPa South 3.2 km/h 8 km/h 81 % 0 mm 288 W/m2
08:14 18.4 °C 14.9 °C 1019.5 hPa South 1.6 km/h 9.7 km/h 80 % 0 mm 366 W/m2
08:19 18.6 °C 14.9 °C 1019.5 hPa SSE 3.2 km/h 11.3 km/h 79 % 0 mm 425 W/m2
08:24 18.6 °C 14.7 °C 1019.5 hPa SSE 8 km/h 14.5 km/h 78 % 0 mm 466 W/m2
08:29 18.8 °C 14.9 °C 1019.5 hPa SSE 8 km/h 14.5 km/h 78 % 0 mm 327 W/m2
08:34 18.9 °C 14.8 °C 1019.2 hPa SSE 8 km/h 14.5 km/h 77 % 0 mm 244 W/m2
08:39 18.9 °C 14.8 °C 1019.2 hPa SSE 8 km/h 14.5 km/h 77 % 0 mm 510 W/m2
08:44 19 °C 14.9 °C 1019.2 hPa SSE 8 km/h 14.5 km/h 77 % 0 mm 343 W/m2
08:49 19.1 °C 14.8 °C 1019.2 hPa South 8 km/h 14.5 km/h 76 % 0 mm 448 W/m2
08:54 19 °C 14.7 °C 1019.2 hPa South 8 km/h 14.5 km/h 76 % 0 mm 475 W/m2
08:59 19.2 °C 14.9 °C 1019.2 hPa SSE 8 km/h 14.5 km/h 76 % 0 mm 708 W/m2
09:04 19.4 °C 15.1 °C 1019.2 hPa SSE 8 km/h 16.1 km/h 76 % 0 mm 661 W/m2
09:05 19.5 °C 14.9 °C 1019.2 hPa SSE 8 km/h 16.1 km/h 75 % 0 mm 501 W/m2
09:10 19.7 °C 14.7 °C 1019.2 hPa South 9.7 km/h 19.3 km/h 73 % 0 mm 693 W/m2
09:15 19.8 °C 14.4 °C 1019.2 hPa SSW 12.9 km/h 20.9 km/h 71 % 0 mm 329 W/m2
09:20 19.8 °C 14.4 °C 1019.2 hPa SW 11.3 km/h 20.9 km/h 71 % 0 mm 151 W/m2
09:25 19.7 °C 14.1 °C 1019.2 hPa SW 11.3 km/h 17.7 km/h 70 % 0 mm 700 W/m2
09:30 19.7 °C 13.6 °C 1019.2 hPa SW 11.3 km/h 17.7 km/h 68 % 0 mm 195 W/m2
09:35 19.6 °C 13.6 °C 1019.2 hPa SSW 9.7 km/h 16.1 km/h 68 % 0 mm 258 W/m2
09:40 19.6 °C 13.8 °C 1019.2 hPa SSW 9.7 km/h 16.1 km/h 69 % 0 mm 195 W/m2
09:45 19.4 °C 13.6 °C 1019.2 hPa SSW 9.7 km/h 16.1 km/h 69 % 0 mm 195 W/m2
09:50 19.3 °C 13.2 °C 1019.2 hPa SW 11.3 km/h 16.1 km/h 68 % 0 mm 190 W/m2
09:55 19.3 °C 13.2 °C 1019.2 hPa SW 11.3 km/h 17.7 km/h 68 % 0 mm 332 W/m2
10:00 19.4 °C 13.1 °C 1019.2 hPa SW 11.3 km/h 17.7 km/h 67 % 0 mm 332 W/m2
10:05 19.7 °C 13.6 °C 1019.2 hPa SW 11.3 km/h 17.7 km/h 68 % 0 mm 686 W/m2
10:10 20.1 °C 13.1 °C 1018.8 hPa SW 12.9 km/h 20.9 km/h 64 % 0 mm 492 W/m2
10:15 20.3 °C 13.3 °C 1018.8 hPa SSW 14.5 km/h 24.1 km/h 64 % 0 mm 951 W/m2
10:20 20.3 °C 13.3 °C 1018.8 hPa SSW 14.5 km/h 24.1 km/h 64 % 0 mm 847 W/m2
10:25 20.5 °C 13.2 °C 1018.8 hPa SW 14.5 km/h 22.5 km/h 63 % 0 mm 376 W/m2
10:30 20.5 °C 13.4 °C 1018.8 hPa SW 14.5 km/h 22.5 km/h 64 % 0 mm 923 W/m2
10:35 20.7 °C 13.4 °C 1018.8 hPa WSW 12.9 km/h 20.9 km/h 63 % 0 mm 223 W/m2
10:40 20.6 °C 13.3 °C 1018.8 hPa WSW 12.9 km/h 19.3 km/h 63 % 0 mm 343 W/m2
10:45 20.5 °C 12.4 °C 1018.8 hPa WSW 14.5 km/h 22.5 km/h 60 % 0 mm 251 W/m2
10:50 20.4 °C 12.4 °C 1018.8 hPa WSW 16.1 km/h 25.7 km/h 60 % 0 mm 260 W/m2
10:55 20.5 °C 12.7 °C 1018.8 hPa SW 14.5 km/h 25.7 km/h 61 % 0 mm 940 W/m2
11:00 20.7 °C 12.9 °C 1018.8 hPa SW 12.9 km/h 22.5 km/h 61 % 0 mm 882 W/m2
11:05 21 °C 13.2 °C 1018.8 hPa SW 12.9 km/h 22.5 km/h 61 % 0 mm 900 W/m2
11:10 21.2 °C 12.3 °C 1018.8 hPa SW 14.5 km/h 25.7 km/h 57 % 0 mm 960 W/m2
11:15 21.1 °C 12.2 °C 1018.8 hPa SW 17.7 km/h 30.6 km/h 57 % 0 mm 230 W/m2
11:16 21.1 °C 12.2 °C 1018.8 hPa SW 17.7 km/h 32.2 km/h 57 % 0 mm 246 W/m2
11:21 20.9 °C 12.3 °C 1018.8 hPa SSW 17.7 km/h 32.2 km/h 58 % 0 mm 858 W/m2
11:26 21.2 °C 12.6 °C 1018.8 hPa SSW 17.7 km/h 32.2 km/h 58 % 0 mm 974 W/m2
11:31 21.4 °C 12.8 °C 1018.8 hPa SSW 19.3 km/h 32.2 km/h 58 % 0 mm 923 W/m2
11:36 21.7 °C 12.8 °C 1018.8 hPa SSW 17.7 km/h 30.6 km/h 57 % 0 mm 960 W/m2
11:41 21.7 °C 12.6 °C 1018.8 hPa SSW 14.5 km/h 30.6 km/h 56 % 0 mm 313 W/m2
11:46 21.7 °C 12.3 °C 1018.8 hPa SW 14.5 km/h 24.1 km/h 55 % 0 mm 475 W/m2
11:51 21.6 °C 12.2 °C 1018.8 hPa SW 16.1 km/h 33.8 km/h 55 % 0 mm 301 W/m2
11:56 21 °C 11.9 °C 1018.8 hPa SW 19.3 km/h 33.8 km/h 56 % 0 mm 288 W/m2
12:01 20.9 °C 12.1 °C 1018.5 hPa SW 17.7 km/h 32.2 km/h 57 % 0 mm 923 W/m2
12:06 21.2 °C 12.3 °C 1018.5 hPa SW 17.7 km/h 33.8 km/h 57 % 0 mm 800 W/m2
12:11 21.5 °C 12.1 °C 1018.5 hPa SW 17.7 km/h 35.4 km/h 55 % 0 mm 976 W/m2
12:16 21.8 °C 12.3 °C 1018.5 hPa SSW 17.7 km/h 35.4 km/h 55 % 0 mm 953 W/m2
12:21 21.9 °C 12.4 °C 1018.5 hPa SSW 19.3 km/h 35.4 km/h 55 % 0 mm 956 W/m2
12:26 21.9 °C 12.4 °C 1018.5 hPa SSW 20.9 km/h 35.4 km/h 55 % 0 mm 997 W/m2
12:31 21.7 °C 12.6 °C 1018.5 hPa SSW 20.9 km/h 38.6 km/h 56 % 0 mm 383 W/m2
12:37 21.6 °C 13.2 °C 1018.5 hPa SW 19.3 km/h 33.8 km/h 59 % 0 mm 311 W/m2
12:42 21.4 °C 13.1 °C 1018.5 hPa WSW 14.5 km/h 24.1 km/h 59 % 0 mm 294 W/m2
12:47 21.3 °C 12.9 °C 1018.5 hPa WSW 16.1 km/h 29 km/h 59 % 0 mm 960 W/m2
12:52 21.2 °C 12.6 °C 1018.5 hPa WSW 19.3 km/h 33.8 km/h 58 % 0 mm 399 W/m2
12:57 21.1 °C 12.8 °C 1018.5 hPa WSW 17.7 km/h 33.8 km/h 59 % 0 mm 399 W/m2
13:02 21.2 °C 12.9 °C 1018.2 hPa SW 16.1 km/h 25.7 km/h 59 % 0 mm 921 W/m2
13:07 21.4 °C 12.8 °C 1018.2 hPa SW 14.5 km/h 29 km/h 58 % 0 mm 921 W/m2
13:12 21.6 °C 12.4 °C 1018.2 hPa SSW 16.1 km/h 37 km/h 56 % 0 mm 1000 W/m2
13:17 21.8 °C 12.1 °C 1018.2 hPa SSW 17.7 km/h 37 km/h 54 % 0 mm 318 W/m2
13:22 22 °C 12.6 °C 1018.2 hPa SW 17.7 km/h 33.8 km/h 55 % 0 mm 318 W/m2
13:27 21.8 °C 12.1 °C 1018.2 hPa SW 17.7 km/h 29 km/h 54 % 0 mm 308 W/m2
13:32 21.7 °C 12.3 °C 1018.2 hPa SW 16.1 km/h 25.7 km/h 55 % 0 mm 997 W/m2
13:34 21.8 °C 12.9 °C 1018.2 hPa SW 16.1 km/h 25.7 km/h 57 % 0 mm 1002 W/m2
13:39 22 °C 12.6 °C 1018.2 hPa SW 17.7 km/h 24.1 km/h 55 % 0 mm 360 W/m2
13:44 22 °C 12.6 °C 1017.8 hPa SW 16.1 km/h 24.1 km/h 55 % 0 mm 997 W/m2
13:48 22.3 °C 12.3 °C 1017.8 hPa SW 16.1 km/h 24.1 km/h 53 % 0 mm 1032 W/m2
13:53 22.4 °C 11.8 °C 1017.8 hPa SW 17.7 km/h 35.4 km/h 51 % 0 mm 976 W/m2
13:58 22.4 °C 12.3 °C 1017.8 hPa SSW 17.7 km/h 35.4 km/h 53 % 0 mm 355 W/m2
14:03 22.4 °C 12.6 °C 1017.8 hPa SW 16.1 km/h 30.6 km/h 54 % 0 mm 383 W/m2
14:05 22.4 °C 12.6 °C 1017.8 hPa SW 16.1 km/h 30.6 km/h 54 % 0 mm 366 W/m2
14:10 22.1 °C 12.1 °C 1017.8 hPa SW 17.7 km/h 30.6 km/h 53 % 0 mm 352 W/m2
14:15 22 °C 12 °C 1017.8 hPa WSW 17.7 km/h 30.6 km/h 53 % 0 mm 408 W/m2
14:20 22.2 °C 11.9 °C 1017.8 hPa WSW 16.1 km/h 33.8 km/h 52 % 0 mm 454 W/m2
14:25 22.2 °C 11.9 °C 1017.8 hPa SW 17.7 km/h 33.8 km/h 52 % 0 mm 515 W/m2
14:30 22.2 °C 12.2 °C 1017.8 hPa SW 17.7 km/h 33.8 km/h 53 % 0 mm 336 W/m2
14:35 21.9 °C 12.2 °C 1017.5 hPa SW 16.1 km/h 29 km/h 54 % 0 mm 334 W/m2
14:40 22.3 °C 12.6 °C 1017.5 hPa SW 16.1 km/h 32.2 km/h 54 % 0 mm 974 W/m2
14:45 22.6 °C 12.6 °C 1017.5 hPa SW 17.7 km/h 32.2 km/h 53 % 0 mm 972 W/m2
14:50 22.7 °C 12.1 °C 1017.5 hPa SW 17.7 km/h 29 km/h 51 % 0 mm 861 W/m2
14:55 22.8 °C 12.4 °C 1017.5 hPa SW 17.7 km/h 29 km/h 52 % 0 mm 940 W/m2
15:00 23 °C 12.3 °C 1017.5 hPa WSW 19.3 km/h 32.2 km/h 51 % 0 mm 860 W/m2
15:05 22.9 °C 12.2 °C 1017.5 hPa WSW 19.3 km/h 32.2 km/h 51 % 0 mm 898 W/m2
15:10 23 °C 12.3 °C 1017.5 hPa SW 16.1 km/h 30.6 km/h 51 % 0 mm 338 W/m2
15:15 23 °C 12 °C 1017.2 hPa SW 16.1 km/h 30.6 km/h 50 % 0 mm 930 W/m2
15:20 23.2 °C 12.2 °C 1017.5 hPa SW 16.1 km/h 25.7 km/h 50 % 0 mm 972 W/m2
15:25 23.2 °C 12.2 °C 1017.2 hPa SW 16.1 km/h 30.6 km/h 50 % 0 mm 315 W/m2
15:30 22.8 °C 12.4 °C 1017.2 hPa SW 16.1 km/h 25.7 km/h 52 % 0 mm 870 W/m2
15:35 22.7 °C 12.6 °C 1017.2 hPa SW 17.7 km/h 25.7 km/h 53 % 0 mm 360 W/m2
15:40 22.7 °C 12.3 °C 1017.2 hPa SSW 16.1 km/h 25.7 km/h 52 % 0 mm 731 W/m2
15:45 22.4 °C 12.3 °C 1017.2 hPa SSW 14.5 km/h 25.7 km/h 53 % 0 mm 283 W/m2
15:50 22.2 °C 12.4 °C 1017.2 hPa SSW 14.5 km/h 25.7 km/h 54 % 0 mm 538 W/m2
15:55 22.2 °C 12.7 °C 1017.2 hPa South 14.5 km/h 25.7 km/h 55 % 0 mm 487 W/m2
15:57 22.2 °C 12.7 °C 1017.2 hPa South 12.9 km/h 25.7 km/h 55 % 0 mm 529 W/m2
16:02 22.4 °C 13.2 °C 1016.8 hPa SSW 11.3 km/h 19.3 km/h 56 % 0 mm 766 W/m2
16:07 22.7 °C 12.6 °C 1016.8 hPa SW 11.3 km/h 20.9 km/h 53 % 0 mm 624 W/m2
16:12 22.8 °C 12.4 °C 1016.8 hPa SW 14.5 km/h 30.6 km/h 52 % 0 mm 283 W/m2
16:17 22.7 °C 12.9 °C 1016.8 hPa SW 16.1 km/h 30.6 km/h 54 % 0 mm 603 W/m2
16:22 22.7 °C 12.9 °C 1016.8 hPa SW 16.1 km/h 25.7 km/h 54 % 0 mm 438 W/m2
16:27 22.6 °C 12.8 °C 1016.8 hPa SW 14.5 km/h 22.5 km/h 54 % 0 mm 390 W/m2
16:32 22.4 °C 12.3 °C 1016.8 hPa SW 14.5 km/h 22.5 km/h 53 % 0 mm 262 W/m2
16:37 22.2 °C 12.4 °C 1016.8 hPa SSW 16.1 km/h 24.1 km/h 54 % 0 mm 482 W/m2
16:42 22.3 °C 12.8 °C 1016.8 hPa SW 14.5 km/h 24.1 km/h 55 % 0 mm 309 W/m2
16:47 22.3 °C 12.8 °C 1016.8 hPa SW 12.9 km/h 20.9 km/h 55 % 0 mm 264 W/m2
16:52 22.3 °C 12.8 °C 1016.8 hPa SW 11.3 km/h 17.7 km/h 55 % 0 mm 250 W/m2
16:55 22.3 °C 12.6 °C 1016.8 hPa SW 11.3 km/h 22.5 km/h 54 % 0 mm 234 W/m2
17:00 22.2 °C 12.4 °C 1016.5 hPa SW 12.9 km/h 22.5 km/h 54 % 0 mm 492 W/m2
17:05 22.3 °C 12.6 °C 1016.5 hPa SW 14.5 km/h 22.5 km/h 54 % 0 mm 239 W/m2
17:10 22.2 °C 12.4 °C 1016.5 hPa SW 12.9 km/h 20.9 km/h 54 % 0 mm 267 W/m2
17:15 22.2 °C 12.7 °C 1016.5 hPa SW 12.9 km/h 20.9 km/h 55 % 0 mm 255 W/m2
17:20 22.3 °C 12.6 °C 1016.5 hPa SW 12.9 km/h 22.5 km/h 54 % 0 mm 482 W/m2
17:25 22.3 °C 12.6 °C 1016.5 hPa SW 16.1 km/h 29 km/h 54 % 0 mm 323 W/m2
17:30 22.2 °C 12.2 °C 1016.5 hPa SW 16.1 km/h 29 km/h 53 % 0 mm 225 W/m2
17:35 22.2 °C 12.7 °C 1016.5 hPa SW 12.9 km/h 24.1 km/h 55 % 0 mm 624 W/m2
17:40 22.6 °C 12.8 °C 1016.5 hPa SW 11.3 km/h 17.7 km/h 54 % 0 mm 601 W/m2
17:45 22.9 °C 12.8 °C 1016.5 hPa SW 12.9 km/h 25.7 km/h 53 % 0 mm 357 W/m2
17:50 22.8 °C 12.4 °C 1016.5 hPa SW 14.5 km/h 25.7 km/h 52 % 0 mm 237 W/m2
17:55 22.6 °C 12.6 °C 1016.5 hPa SSW 16.1 km/h 29 km/h 53 % 0 mm 227 W/m2
18:00 22.4 °C 12.6 °C 1016.5 hPa SSW 14.5 km/h 29 km/h 54 % 0 mm 264 W/m2
18:05 22.4 °C 12.3 °C 1016.1 hPa SW 14.5 km/h 22.5 km/h 53 % 0 mm 469 W/m2
18:10 22.4 °C 12.3 °C 1016.1 hPa SW 14.5 km/h 22.5 km/h 53 % 0 mm 459 W/m2
18:15 22.6 °C 12.8 °C 1016.1 hPa SW 12.9 km/h 24.1 km/h 54 % 0 mm 441 W/m2
18:20 22.6 °C 12.6 °C 1016.1 hPa SW 12.9 km/h 24.1 km/h 53 % 0 mm 169 W/m2
18:25 22.3 °C 12.6 °C 1016.1 hPa SSW 16.1 km/h 24.1 km/h 54 % 0 mm 155 W/m2
18:30 22.4 °C 12.6 °C 1016.1 hPa SW 14.5 km/h 20.9 km/h 54 % 0 mm 334 W/m2
18:35 22.6 °C 12.8 °C 1016.1 hPa WSW 12.9 km/h 24.1 km/h 54 % 0 mm 125 W/m2
18:40 22.4 °C 12.9 °C 1016.1 hPa SW 11.3 km/h 24.1 km/h 55 % 0 mm 130 W/m2
18:45 22.2 °C 12.7 °C 1016.1 hPa SSW 14.5 km/h 25.7 km/h 55 % 0 mm 153 W/m2
18:50 22.1 °C 12.9 °C 1016.1 hPa SSW 16.1 km/h 25.7 km/h 56 % 0 mm 172 W/m2
18:55 21.9 °C 12.7 °C 1016.1 hPa SSW 14.5 km/h 24.1 km/h 56 % 0 mm 111 W/m2
19:00 21.9 °C 13 °C 1016.1 hPa SSW 11.3 km/h 24.1 km/h 57 % 0 mm 132 W/m2
19:05 22 °C 13.1 °C 1015.8 hPa SW 11.3 km/h 17.7 km/h 57 % 0 mm 223 W/m2
19:10 22.1 °C 12.9 °C 1015.8 hPa SW 9.7 km/h 19.3 km/h 56 % 0 mm 183 W/m2
19:15 22.1 °C 13.2 °C 1015.8 hPa SW 9.7 km/h 19.3 km/h 57 % 0 mm 109 W/m2
19:21 22 °C 13.1 °C 1015.8 hPa SW 9.7 km/h 14.5 km/h 57 % 0 mm 76 W/m2
19:26 21.9 °C 13 °C 1015.8 hPa SW 9.7 km/h 19.3 km/h 57 % 0 mm 167 W/m2
19:31 21.9 °C 13 °C 1015.8 hPa SW 11.3 km/h 19.3 km/h 57 % 0 mm 179 W/m2
19:36 21.9 °C 13.3 °C 1016.1 hPa SSW 11.3 km/h 19.3 km/h 58 % 0 mm 123 W/m2
19:41 21.9 °C 13.3 °C 1015.8 hPa SSW 11.3 km/h 19.3 km/h 58 % 0 mm 69 W/m2
19:46 21.7 °C 13.1 °C 1015.8 hPa SSW 11.3 km/h 19.3 km/h 58 % 0 mm 77 W/m2
19:51 21.6 °C 13.2 °C 1015.8 hPa SSW 11.3 km/h 19.3 km/h 59 % 0 mm 125 W/m2
19:56 21.4 °C 13.3 °C 1015.8 hPa SW 11.3 km/h 17.7 km/h 60 % 0 mm 63 W/m2
20:01 21.3 °C 13.2 °C 1015.8 hPa SSW 11.3 km/h 17.7 km/h 60 % 0 mm 46 W/m2
20:06 21.1 °C 13.3 °C 1015.8 hPa SSW 9.7 km/h 16.1 km/h 61 % 0 mm 40 W/m2
20:11 21 °C 13.2 °C 1015.8 hPa SSW 9.7 km/h 17.7 km/h 61 % 0 mm 35 W/m2
20:16 20.9 °C 13.3 °C 1015.8 hPa SW 9.7 km/h 17.7 km/h 62 % 0 mm 30 W/m2
20:21 20.7 °C 13.2 °C 1015.8 hPa SW 8 km/h 14.5 km/h 62 % 0 mm 28 W/m2
20:26 20.6 °C 13.3 °C 1015.8 hPa SW 8 km/h 14.5 km/h 63 % 0 mm 28 W/m2
20:31 20.4 °C 13.1 °C 1015.8 hPa SW 6.4 km/h 11.3 km/h 63 % 0 mm 28 W/m2
20:36 20.3 °C 13.3 °C 1015.8 hPa SW 6.4 km/h 9.7 km/h 64 % 0 mm 25 W/m2
20:41 20.2 °C 13.2 °C 1015.8 hPa SW 6.4 km/h 9.7 km/h 64 % 0 mm 23 W/m2
20:46 20.1 °C 13.1 °C 1015.8 hPa SW 4.8 km/h 9.7 km/h 64 % 0 mm 21 W/m2
20:51 20.1 °C 13.1 °C 1015.8 hPa SW 4.8 km/h 11.3 km/h 64 % 0 mm 19 W/m2
20:56 20 °C 13.2 °C 1015.8 hPa SW 3.2 km/h 11.3 km/h 65 % 0 mm 14 W/m2
21:01 19.9 °C 13.1 °C 1015.8 hPa SW 3.2 km/h 6.4 km/h 65 % 0 mm 12 W/m2
21:06 19.8 °C 13.1 °C 1015.8 hPa SW 4.8 km/h 8 km/h 65 % 0 mm 11 W/m2
21:11 19.7 °C 12.9 °C 1015.8 hPa SW 4.8 km/h 9.7 km/h 65 % 0 mm 7 W/m2
21:16 19.6 °C 12.8 °C 1015.8 hPa SW 6.4 km/h 9.7 km/h 65 % 0 mm 5 W/m2
21:21 19.5 °C 13 °C 1015.8 hPa WSW 4.8 km/h 9.7 km/h 66 % 0 mm 0 W/m2
21:26 19.3 °C 13 °C 1015.8 hPa West 4.8 km/h 9.7 km/h 67 % 0 mm 0 W/m2
21:31 19.2 °C 12.7 °C 1015.8 hPa WSW 4.8 km/h 11.3 km/h 66 % 0 mm 0 W/m2
21:36 19.1 °C 12.8 °C 1015.8 hPa WSW 6.4 km/h 11.3 km/h 67 % 0 mm 0 W/m2
21:41 19 °C 12.7 °C 1015.8 hPa WSW 6.4 km/h 12.9 km/h 67 % 0 mm 0 W/m2
21:46 18.9 °C 12.6 °C 1015.8 hPa WSW 8 km/h 12.9 km/h 67 % 0 mm 0 W/m2
21:51 18.8 °C 12.8 °C 1015.8 hPa WSW 6.4 km/h 12.9 km/h 68 % 0 mm 0 W/m2
21:57 18.6 °C 12.8 °C 1015.8 hPa West 4.8 km/h 9.7 km/h 69 % 0 mm 0 W/m2
22:02 18.5 °C 12.7 °C 1015.8 hPa West 3.2 km/h 8 km/h 69 % 0 mm 0 W/m2
22:07 18.3 °C 12.5 °C 1015.8 hPa West 3.2 km/h 8 km/h 69 % 0 mm 0 W/m2
22:12 18.2 °C 12.6 °C 1015.8 hPa West 4.8 km/h 9.7 km/h 70 % 0 mm 0 W/m2
22:17 18.1 °C 12.6 °C 1015.8 hPa West 6.4 km/h 9.7 km/h 70 % 0 mm 0 W/m2
22:22 18.1 °C 12.6 °C 1015.8 hPa West 6.4 km/h 11.3 km/h 70 % 0 mm 0 W/m2
22:27 18 °C 12.7 °C 1015.8 hPa West 6.4 km/h 11.3 km/h 71 % 0 mm 0 W/m2
22:32 17.9 °C 12.6 °C 1015.8 hPa West 6.4 km/h 9.7 km/h 71 % 0 mm 0 W/m2
22:37 17.8 °C 12.4 °C 1015.8 hPa West 6.4 km/h 11.3 km/h 71 % 0 mm 0 W/m2
22:42 17.7 °C 12.6 °C 1015.8 hPa WNW 6.4 km/h 12.9 km/h 72 % 0 mm 0 W/m2
22:47 17.6 °C 12.7 °C 1015.8 hPa WNW 6.4 km/h 12.9 km/h 73 % 0 mm 0 W/m2
22:52 17.6 °C 12.7 °C 1015.8 hPa West 3.2 km/h 9.7 km/h 73 % 0 mm 0 W/m2
22:53 17.5 °C 12.6 °C 1015.8 hPa West 3.2 km/h 8 km/h 73 % 0 mm 0 W/m2
22:58 17.4 °C 12.7 °C 1015.5 hPa West 1.6 km/h 6.4 km/h 74 % 0 mm 0 W/m2
23:03 17.3 °C 12.6 °C 1015.8 hPa West 1.6 km/h 6.4 km/h 74 % 0 mm 0 W/m2
23:08 17.2 °C 12.7 °C 1015.5 hPa West 3.2 km/h 8 km/h 75 % 0 mm 0 W/m2
23:13 17.1 °C 12.8 °C 1015.5 hPa West 4.8 km/h 9.7 km/h 76 % 0 mm 0 W/m2
23:18 17 °C 12.7 °C 1015.5 hPa WNW 3.2 km/h 9.7 km/h 76 % 0 mm 0 W/m2
23:23 16.9 °C 12.8 °C 1015.5 hPa WNW 3.2 km/h 8 km/h 77 % 0 mm 0 W/m2
23:26 16.8 °C 12.7 °C 1015.5 hPa WNW 3.2 km/h 8 km/h 77 % 0 mm 0 W/m2
23:31 16.7 °C 12.7 °C 1015.5 hPa WNW 4.8 km/h 9.7 km/h 77 % 0 mm 0 W/m2
23:36 16.7 °C 12.8 °C 1015.5 hPa WNW 6.4 km/h 9.7 km/h 78 % 0 mm 0 W/m2
23:41 16.6 °C 12.7 °C 1015.5 hPa WNW 6.4 km/h 11.3 km/h 78 % 0 mm 0 W/m2
23:46 16.6 °C 12.7 °C 1015.5 hPa WNW 6.4 km/h 11.3 km/h 78 % 0 mm 0 W/m2
23:51 16.5 °C 12.8 °C 1015.5 hPa WNW 4.8 km/h 11.3 km/h 79 % 0 mm 0 W/m2
23:56 16.4 °C 12.7 °C 1015.5 hPa NW 3.2 km/h 8 km/h 79 % 0 mm 0 W/m2
Delerius-Weather
Compliments of Weather Underground - 2.25 mb

Data updates at regular intervals.